createdAt,value
2023-04-07T00:01:41.533Z,5.50
2023-04-07T00:04:08.821Z,5.60
2023-04-07T00:06:35.923Z,5.60
2023-04-07T00:09:02.905Z,5.60
2023-04-07T00:11:29.960Z,5.60
2023-04-07T00:13:57.089Z,5.70
2023-04-07T00:16:24.378Z,5.70
2023-04-07T00:18:51.425Z,5.70
2023-04-07T00:21:18.450Z,5.60
2023-04-07T00:23:46.475Z,5.60
2023-04-07T00:26:13.695Z,5.70
2023-04-07T00:28:40.832Z,5.60
2023-04-07T00:31:07.944Z,5.60
2023-04-07T00:33:35.005Z,5.60
2023-04-07T00:36:02.133Z,5.60
2023-04-07T00:38:29.205Z,5.50
2023-04-07T00:40:59.970Z,5.50
2023-04-07T00:43:27.350Z,5.50
2023-04-07T00:45:54.985Z,5.50
2023-04-07T00:48:22.358Z,5.50
2023-04-07T00:50:49.620Z,5.50
2023-04-07T00:53:17.665Z,5.50
2023-04-07T00:55:44.847Z,5.50
2023-04-07T00:58:11.948Z,5.50
2023-04-07T01:00:51.537Z,5.60
2023-04-07T01:03:31.328Z,5.60
2023-04-07T01:06:03.246Z,5.60
2023-04-07T01:08:51.837Z,5.60
2023-04-07T01:11:42.827Z,5.60
2023-04-07T01:14:12.273Z,5.60
2023-04-07T01:16:54.699Z,5.60
2023-04-07T01:19:38.614Z,5.60
2023-04-07T01:22:13.005Z,5.60
2023-04-07T01:25:01.285Z,5.60
2023-04-07T01:27:40.204Z,5.60
2023-04-07T01:30:12.053Z,5.60
2023-04-07T01:32:41.898Z,5.50
2023-04-07T01:35:13.565Z,5.60
2023-04-07T01:37:41.858Z,5.60
2023-04-07T01:40:09.643Z,5.50
2023-04-07T01:42:38.170Z,5.50
2023-04-07T01:45:07.076Z,5.50
2023-04-07T01:47:37.593Z,5.50
2023-04-07T01:50:06.097Z,5.50
2023-04-07T01:52:35.758Z,5.50
2023-04-07T01:55:07.145Z,5.50
2023-04-07T01:57:34.150Z,5.40
2023-04-07T02:00:01.451Z,5.40
2023-04-07T02:02:29.250Z,5.40
2023-04-07T02:05:00.919Z,5.40
2023-04-07T02:07:46.414Z,5.40
2023-04-07T02:10:16.540Z,5.40
2023-04-07T02:12:47.310Z,5.40
2023-04-07T02:15:16.494Z,5.50
2023-04-07T02:17:47.957Z,5.50
2023-04-07T02:20:16.713Z,5.50
2023-04-07T02:22:44.947Z,5.50
2023-04-07T02:25:22.988Z,5.50
2023-04-07T02:27:50.041Z,5.50
2023-04-07T02:30:17.368Z,5.50
2023-04-07T02:32:44.526Z,5.50
2023-04-07T02:35:12.279Z,5.50
2023-04-07T02:37:39.845Z,5.50
2023-04-07T02:40:07.450Z,5.50
2023-04-07T02:42:34.575Z,5.50
2023-04-07T02:45:01.562Z,5.50
2023-04-07T02:47:28.552Z,5.50
2023-04-07T02:49:55.552Z,5.50
2023-04-07T02:52:22.671Z,5.50
2023-04-07T02:54:49.746Z,5.50
2023-04-07T02:57:16.821Z,5.50
2023-04-07T02:59:43.848Z,5.50
2023-04-07T03:02:11.129Z,5.50
2023-04-07T03:04:38.251Z,5.50
2023-04-07T03:07:05.415Z,5.40
2023-04-07T03:09:32.425Z,5.40
2023-04-07T03:11:59.441Z,5.40
2023-04-07T03:14:26.625Z,5.40
2023-04-07T03:16:53.632Z,5.40
2023-04-07T03:19:25.270Z,5.40
2023-04-07T03:21:52.464Z,5.40
2023-04-07T03:24:19.480Z,5.40
2023-04-07T03:26:47.277Z,5.40
2023-04-07T03:29:14.411Z,5.30
2023-04-07T03:31:41.813Z,5.30
2023-04-07T03:34:09.073Z,5.30
2023-04-07T03:36:36.170Z,5.30
2023-04-07T03:39:03.175Z,5.30
2023-04-07T03:41:30.434Z,5.20
2023-04-07T03:43:57.474Z,5.20
2023-04-07T03:46:27.152Z,5.20
2023-04-07T03:48:54.453Z,5.20
2023-04-07T03:51:21.685Z,5.20
2023-04-07T03:53:48.697Z,5.20
2023-04-07T03:56:15.709Z,5.20
2023-04-07T03:58:42.977Z,5.20
2023-04-07T04:01:10.087Z,5.20
2023-04-07T04:03:37.363Z,5.20
2023-04-07T04:06:04.897Z,5.20
2023-04-07T04:08:31.956Z,5.20
2023-04-07T04:10:59.012Z,5.10
2023-04-07T04:13:26.035Z,5.20
2023-04-07T04:15:53.252Z,5.20
2023-04-07T04:18:20.438Z,5.20
2023-04-07T04:20:48.158Z,5.20
2023-04-07T04:23:16.239Z,5.10
2023-04-07T04:25:43.274Z,5.10
2023-04-07T04:28:10.533Z,5.10
2023-04-07T04:30:37.576Z,5.10
2023-04-07T04:33:04.684Z,5.10
2023-04-07T04:35:31.767Z,5.10
2023-04-07T04:37:58.729Z,5.10
2023-04-07T04:40:26.148Z,5.10
2023-04-07T04:42:53.119Z,5.10
2023-04-07T04:45:20.237Z,5.20
2023-04-07T04:47:47.346Z,5.20
2023-04-07T04:50:14.505Z,5.20
2023-04-07T04:52:41.529Z,5.30
2023-04-07T04:55:08.977Z,5.30
2023-04-07T04:57:36.539Z,5.30
2023-04-07T05:00:04.668Z,5.30
2023-04-07T05:02:32.074Z,5.40
2023-04-07T05:04:59.410Z,5.40
2023-04-07T05:07:26.850Z,5.40
2023-04-07T05:09:53.956Z,5.40
2023-04-07T05:12:22.004Z,5.50
2023-04-07T05:14:49.027Z,5.50
2023-04-07T05:17:16.183Z,5.50
2023-04-07T05:19:43.418Z,5.50
2023-04-07T05:22:10.767Z,5.60
2023-04-07T05:24:37.819Z,5.60
2023-04-07T05:27:04.848Z,5.70
2023-04-07T05:29:31.927Z,5.70
2023-04-07T05:31:59.128Z,5.70
2023-04-07T05:34:26.289Z,5.70
2023-04-07T05:36:53.579Z,5.70
2023-04-07T05:39:20.818Z,5.80
2023-04-07T05:41:47.864Z,5.80
2023-04-07T05:44:14.987Z,5.90
2023-04-07T05:46:42.053Z,5.90
2023-04-07T05:49:19.595Z,6.00
2023-04-07T05:51:48.756Z,6.10
2023-04-07T05:54:16.793Z,6.10
2023-04-07T05:56:43.914Z,6.20
2023-04-07T05:59:10.915Z,6.20
2023-04-07T06:01:37.926Z,6.30
2023-04-07T06:04:05.046Z,6.30
2023-04-07T06:06:32.103Z,6.40
2023-04-07T06:08:59.194Z,6.40
2023-04-07T06:11:27.588Z,6.40
2023-04-07T06:13:54.691Z,6.50
2023-04-07T06:16:21.772Z,6.60
2023-04-07T06:18:48.847Z,6.60
2023-04-07T06:21:15.967Z,6.60
2023-04-07T06:23:42.956Z,6.70
2023-04-07T06:26:13.200Z,6.70
2023-04-07T06:28:40.678Z,6.80
2023-04-07T06:31:08.925Z,6.80
2023-04-07T06:33:36.217Z,6.90
2023-04-07T06:36:03.410Z,6.90
2023-04-07T06:38:30.723Z,6.90
2023-04-07T06:40:57.784Z,6.90
2023-04-07T06:43:24.833Z,6.90
2023-04-07T06:45:51.921Z,7.00
2023-04-07T06:48:18.998Z,7.00
2023-04-07T06:50:52.456Z,7.00
2023-04-07T06:53:19.508Z,7.10
2023-04-07T06:55:46.602Z,7.20
2023-04-07T06:58:13.643Z,7.20
2023-04-07T07:00:40.663Z,7.30
2023-04-07T07:03:07.919Z,7.40
2023-04-07T07:05:35.148Z,7.50
2023-04-07T07:08:02.183Z,7.60
2023-04-07T07:10:29.311Z,7.70
2023-04-07T07:12:56.361Z,7.70
2023-04-07T07:15:23.430Z,7.70
2023-04-07T07:17:50.499Z,7.80
2023-04-07T07:20:17.610Z,7.90
2023-04-07T07:22:44.614Z,8.00
2023-04-07T07:25:11.864Z,8.00
2023-04-07T07:27:38.878Z,8.10
2023-04-07T07:30:06.836Z,8.10
2023-04-07T07:32:33.927Z,8.10
2023-04-07T07:35:01.463Z,8.20
2023-04-07T07:37:28.571Z,8.30
2023-04-07T07:39:56.426Z,8.40
2023-04-07T07:42:23.396Z,8.60
2023-04-07T07:44:51.148Z,8.70
2023-04-07T07:47:18.276Z,8.70
2023-04-07T07:49:45.425Z,8.80
2023-04-07T07:52:12.565Z,8.80
2023-04-07T07:54:39.602Z,8.90
2023-04-07T07:57:06.661Z,9.00
2023-04-07T07:59:33.789Z,9.00
2023-04-07T08:02:01.191Z,9.10
2023-04-07T08:04:28.327Z,9.10
2023-04-07T08:06:56.210Z,9.00
2023-04-07T08:09:23.274Z,9.10
2023-04-07T08:11:51.316Z,9.20
2023-04-07T08:14:18.832Z,9.30
2023-04-07T08:16:46.148Z,9.30
2023-04-07T08:19:13.965Z,9.40
2023-04-07T08:21:41.291Z,9.40
2023-04-07T08:24:11.030Z,9.50
2023-04-07T08:26:38.339Z,9.50
2023-04-07T08:29:05.583Z,9.60
2023-04-07T08:31:32.800Z,9.60
2023-04-07T08:33:59.920Z,9.60
2023-04-07T08:36:28.233Z,9.60
2023-04-07T08:38:55.425Z,9.60
2023-04-07T08:41:30.932Z,9.60
2023-04-07T08:43:58.982Z,9.60
2023-04-07T08:46:26.275Z,9.70
2023-04-07T08:48:55.898Z,9.70
2023-04-07T08:51:32.115Z,9.70
2023-04-07T08:54:22.006Z,9.70
2023-04-07T08:56:49.322Z,9.70
2023-04-07T08:59:25.536Z,9.60
2023-04-07T09:01:53.190Z,9.50
2023-04-07T09:04:20.825Z,9.50
2023-04-07T09:06:47.804Z,9.50
2023-04-07T09:09:15.483Z,9.50
2023-04-07T09:11:42.651Z,9.50
2023-04-07T09:14:09.747Z,9.50
2023-04-07T09:16:39.993Z,9.50
2023-04-07T09:19:07.404Z,9.50
2023-04-07T09:21:51.643Z,9.60
2023-04-07T09:24:31.752Z,9.70
2023-04-07T09:27:18.842Z,9.80
2023-04-07T09:29:47.757Z,10.00
2023-04-07T09:32:36.802Z,10.00
2023-04-07T09:35:04.015Z,10.00
2023-04-07T09:37:31.051Z,10.00
2023-04-07T09:39:58.139Z,10.10
2023-04-07T09:42:26.805Z,10.10
2023-04-07T09:44:53.952Z,10.10
2023-04-07T09:47:29.974Z,10.00
2023-04-07T09:49:58.942Z,10.00
2023-04-07T09:52:47.650Z,9.90
2023-04-07T09:55:16.164Z,9.80
2023-04-07T09:57:45.543Z,9.80
2023-04-07T10:00:13.295Z,9.80
2023-04-07T10:02:41.012Z,9.90
2023-04-07T10:05:08.861Z,9.80
2023-04-07T10:07:36.192Z,9.90
2023-04-07T10:10:08.383Z,10.00
2023-04-07T10:12:38.043Z,10.10
2023-04-07T10:15:06.274Z,10.10
2023-04-07T10:17:36.341Z,10.10
2023-04-07T10:20:06.815Z,10.20
2023-04-07T10:22:35.408Z,10.30
2023-04-07T10:25:11.748Z,10.50
2023-04-07T10:27:59.474Z,10.40
2023-04-07T10:30:31.768Z,10.30
2023-04-07T10:32:59.152Z,10.30
2023-04-07T10:35:26.897Z,10.30
2023-04-07T10:38:10.708Z,10.40
2023-04-07T10:40:38.394Z,10.40
2023-04-07T10:43:09.712Z,10.40
2023-04-07T10:45:48.956Z,10.40
2023-04-07T10:48:18.345Z,10.50
2023-04-07T10:50:47.064Z,10.40
2023-04-07T10:53:16.366Z,10.50
2023-04-07T10:55:45.057Z,10.40
2023-04-07T10:58:29.310Z,10.30
2023-04-07T11:01:09.421Z,10.20
2023-04-07T11:03:52.893Z,10.20
2023-04-07T11:06:19.976Z,10.10
2023-04-07T11:08:49.556Z,10.10
2023-04-07T11:11:21.193Z,10.10
2023-04-07T11:13:50.244Z,10.10
2023-04-07T11:16:19.632Z,10.10
2023-04-07T11:18:50.339Z,10.10
2023-04-07T11:21:20.289Z,10.10
2023-04-07T11:23:48.470Z,10.10
2023-04-07T11:26:16.318Z,10.20
2023-04-07T11:28:55.277Z,10.20
2023-04-07T11:31:31.391Z,10.30
2023-04-07T11:34:00.939Z,10.30
2023-04-07T11:36:39.998Z,10.40
2023-04-07T11:39:19.108Z,10.50
2023-04-07T11:41:48.036Z,10.60
2023-04-07T11:44:15.117Z,10.80
2023-04-07T11:46:55.230Z,10.80
2023-04-07T11:49:23.977Z,11.00
2023-04-07T11:52:03.262Z,11.10
2023-04-07T11:54:50.914Z,11.20
2023-04-07T11:57:26.710Z,11.20
2023-04-07T12:00:26.080Z,11.30
2023-04-07T12:02:53.670Z,11.50
2023-04-07T12:05:21.164Z,11.60
2023-04-07T12:07:55.771Z,11.70
2023-04-07T12:10:26.038Z,11.70
2023-04-07T12:12:53.616Z,11.70
2023-04-07T12:15:21.340Z,11.70
2023-04-07T12:17:49.602Z,11.70
2023-04-07T12:20:17.544Z,11.70
2023-04-07T12:22:44.722Z,11.50
2023-04-07T12:25:11.852Z,11.30
2023-04-07T12:27:42.795Z,11.30
2023-04-07T12:30:13.322Z,11.40
2023-04-07T12:32:40.828Z,11.40
2023-04-07T12:35:08.096Z,11.40
2023-04-07T12:37:35.215Z,11.40
2023-04-07T12:40:02.279Z,11.40
2023-04-07T12:42:29.358Z,11.40
2023-04-07T12:44:56.914Z,11.50
2023-04-07T12:47:24.123Z,11.60
2023-04-07T12:49:51.261Z,11.60
2023-04-07T12:52:18.334Z,11.60
2023-04-07T12:54:45.611Z,11.50
2023-04-07T12:57:12.869Z,11.50
2023-04-07T12:59:39.960Z,11.50
2023-04-07T13:02:07.513Z,11.40
2023-04-07T13:04:35.664Z,11.30
2023-04-07T13:07:03.455Z,11.30
2023-04-07T13:09:30.463Z,11.30
2023-04-07T13:11:58.066Z,11.20
2023-04-07T13:14:25.373Z,11.20
2023-04-07T13:16:52.907Z,11.10
2023-04-07T13:19:20.002Z,11.00
2023-04-07T13:21:48.135Z,11.00
2023-04-07T13:24:15.742Z,11.00
2023-04-07T13:26:42.798Z,11.10
2023-04-07T13:29:09.813Z,11.10
2023-04-07T13:31:36.957Z,11.10
2023-04-07T13:34:03.975Z,11.00
2023-04-07T13:36:31.604Z,11.00
2023-04-07T13:38:58.738Z,11.00
2023-04-07T13:41:26.815Z,11.00
2023-04-07T13:43:54.030Z,11.10
2023-04-07T13:46:28.370Z,11.00
2023-04-07T13:48:56.464Z,11.00
2023-04-07T13:51:23.762Z,11.00
2023-04-07T13:53:51.271Z,11.00
2023-04-07T13:56:18.784Z,10.90
2023-04-07T13:58:46.353Z,10.90
2023-04-07T14:01:13.561Z,10.80
2023-04-07T14:03:40.767Z,10.60
2023-04-07T14:06:07.927Z,10.50
2023-04-07T14:08:35.016Z,10.50
2023-04-07T14:11:03.481Z,10.50
2023-04-07T14:13:30.690Z,10.60
2023-04-07T14:15:58.626Z,10.60
2023-04-07T14:18:28.130Z,10.70
2023-04-07T14:20:55.170Z,10.80
2023-04-07T14:23:33.785Z,11.00
2023-04-07T14:26:04.372Z,11.00
2023-04-07T14:28:31.807Z,11.10
2023-04-07T14:30:58.883Z,11.10
2023-04-07T14:33:26.351Z,11.00
2023-04-07T14:35:53.416Z,11.10
2023-04-07T14:38:24.577Z,11.10
2023-04-07T14:40:52.753Z,11.20
2023-04-07T14:43:19.992Z,11.20
2023-04-07T14:45:47.084Z,11.10
2023-04-07T14:48:14.191Z,11.00
2023-04-07T14:50:41.440Z,11.00
2023-04-07T14:53:08.928Z,11.10
2023-04-07T14:55:36.343Z,11.10
2023-04-07T14:58:03.409Z,11.20
2023-04-07T15:00:30.449Z,11.10
2023-04-07T15:02:58.000Z,11.20
2023-04-07T15:05:28.304Z,11.20
2023-04-07T15:07:55.726Z,11.30
2023-04-07T15:10:22.754Z,11.30
2023-04-07T15:12:50.515Z,11.30
2023-04-07T15:15:18.003Z,11.30
2023-04-07T15:17:45.516Z,11.30
2023-04-07T15:20:13.407Z,11.20
2023-04-07T15:22:40.864Z,11.10
2023-04-07T15:25:08.851Z,10.90
2023-04-07T15:27:36.076Z,10.90
2023-04-07T15:30:03.401Z,10.80
2023-04-07T15:32:32.076Z,10.80
2023-04-07T15:34:59.155Z,10.70
2023-04-07T15:37:27.046Z,10.70
2023-04-07T15:39:54.079Z,10.60
2023-04-07T15:42:21.169Z,10.50
2023-04-07T15:44:48.286Z,10.40
2023-04-07T15:47:15.380Z,10.30
2023-04-07T15:49:42.507Z,10.10
2023-04-07T15:52:09.672Z,9.90
2023-04-07T15:54:36.751Z,9.80
2023-04-07T15:57:03.858Z,9.80
2023-04-07T15:59:31.260Z,9.70
2023-04-07T16:01:58.844Z,9.70
2023-04-07T16:04:26.044Z,9.70
2023-04-07T16:06:53.084Z,9.70
2023-04-07T16:09:20.120Z,9.60
2023-04-07T16:11:47.268Z,9.60
2023-04-07T16:14:14.324Z,9.60
2023-04-07T16:16:41.714Z,9.60
2023-04-07T16:19:08.947Z,9.60
2023-04-07T16:21:36.104Z,9.60
2023-04-07T16:24:03.165Z,9.70
2023-04-07T16:26:30.188Z,9.70
2023-04-07T16:28:57.236Z,9.70
2023-04-07T16:31:24.321Z,9.60
2023-04-07T16:33:51.637Z,9.70
2023-04-07T16:36:18.830Z,9.70
2023-04-07T16:38:45.992Z,9.80
2023-04-07T16:41:12.986Z,9.80
2023-04-07T16:43:39.998Z,9.80
2023-04-07T16:46:07.108Z,9.80
2023-04-07T16:48:34.160Z,9.80
2023-04-07T16:51:01.409Z,9.80
2023-04-07T16:53:28.387Z,9.80
2023-04-07T16:55:55.958Z,9.80
2023-04-07T16:58:22.978Z,9.80
2023-04-07T17:00:50.740Z,9.80
2023-04-07T17:03:17.845Z,9.80
2023-04-07T17:05:45.859Z,9.70
2023-04-07T17:08:12.897Z,9.70
2023-04-07T17:10:39.951Z,9.60
2023-04-07T17:13:07.051Z,9.60
2023-04-07T17:15:38.118Z,9.60
2023-04-07T17:18:05.441Z,9.60
2023-04-07T17:20:32.614Z,9.50
2023-04-07T17:22:59.558Z,9.50
2023-04-07T17:25:26.628Z,9.40
2023-04-07T17:27:55.437Z,9.40
2023-04-07T17:30:22.770Z,9.30
2023-04-07T17:32:53.775Z,9.30
2023-04-07T17:35:21.614Z,9.30
2023-04-07T17:37:49.258Z,9.30
2023-04-07T17:40:16.238Z,9.30
2023-04-07T17:42:43.238Z,9.20
2023-04-07T17:45:11.001Z,9.10
2023-04-07T17:47:38.853Z,9.10
2023-04-07T17:50:06.951Z,9.10
2023-04-07T17:52:33.957Z,9.10
2023-04-07T17:55:01.601Z,9.10
2023-04-07T17:57:28.640Z,9.10
2023-04-07T17:59:55.864Z,9.10
2023-04-07T18:02:23.356Z,9.10
2023-04-07T18:04:50.958Z,9.10
2023-04-07T18:07:18.086Z,9.10
2023-04-07T18:09:45.265Z,9.00
2023-04-07T18:12:12.478Z,9.00
2023-04-07T18:14:39.523Z,9.00
2023-04-07T18:17:06.593Z,9.00
2023-04-07T18:19:34.107Z,8.90
2023-04-07T18:22:01.285Z,8.90
2023-04-07T18:24:28.555Z,8.90
2023-04-07T18:26:56.910Z,8.80
2023-04-07T18:29:24.138Z,8.80
2023-04-07T18:31:51.482Z,8.80
2023-04-07T18:34:18.534Z,8.70
2023-04-07T18:36:47.720Z,8.70
2023-04-07T18:39:15.284Z,8.70
2023-04-07T18:41:44.824Z,8.60
2023-04-07T18:44:12.675Z,8.70
2023-04-07T18:46:40.432Z,8.70
2023-04-07T18:49:07.676Z,8.60
2023-04-07T18:51:34.876Z,8.60
2023-04-07T18:54:02.169Z,8.60
2023-04-07T18:56:31.513Z,8.60
2023-04-07T18:58:58.878Z,8.60
2023-04-07T19:01:27.032Z,8.60
2023-04-07T19:03:54.293Z,8.60
2023-04-07T19:06:21.727Z,8.60
2023-04-07T19:08:50.065Z,8.60
2023-04-07T19:11:18.447Z,8.70
2023-04-07T19:13:45.851Z,8.70
2023-04-07T19:16:13.240Z,8.70
2023-04-07T19:18:40.556Z,8.70
2023-04-07T19:21:08.912Z,8.70
2023-04-07T19:23:36.221Z,8.70
2023-04-07T19:26:03.830Z,8.70
2023-04-07T19:28:31.536Z,8.70
2023-04-07T19:30:58.533Z,8.70
2023-04-07T19:33:25.628Z,8.70
2023-04-07T19:35:52.713Z,8.60
2023-04-07T19:38:20.048Z,8.60
2023-04-07T19:40:47.091Z,8.60
2023-04-07T19:43:16.766Z,8.60
2023-04-07T19:45:43.966Z,8.60
2023-04-07T19:48:11.573Z,8.60
2023-04-07T19:50:43.735Z,8.60
2023-04-07T19:53:16.361Z,8.60
2023-04-07T19:55:44.548Z,8.50
2023-04-07T19:58:12.570Z,8.50
2023-04-07T20:00:40.274Z,8.50
2023-04-07T20:03:07.737Z,8.40
2023-04-07T20:05:35.328Z,8.50
2023-04-07T20:08:02.633Z,8.40
2023-04-07T20:10:30.867Z,8.40
2023-04-07T20:12:57.888Z,8.40
2023-04-07T20:15:25.016Z,8.30
2023-04-07T20:17:52.251Z,8.20
2023-04-07T20:20:19.550Z,8.20
2023-04-07T20:22:46.598Z,8.20
2023-04-07T20:25:13.590Z,8.20
2023-04-07T20:27:40.687Z,8.20
2023-04-07T20:30:09.104Z,8.20
2023-04-07T20:32:36.157Z,8.20
2023-04-07T20:35:04.190Z,8.30
2023-04-07T20:37:31.226Z,8.20
2023-04-07T20:39:58.998Z,8.20
2023-04-07T20:42:26.101Z,8.20
2023-04-07T20:44:59.087Z,8.20
2023-04-07T20:47:26.050Z,8.20
2023-04-07T20:49:55.428Z,8.10
2023-04-07T20:52:22.582Z,8.10
2023-04-07T20:54:49.744Z,8.10
2023-04-07T20:57:16.863Z,8.10
2023-04-07T20:59:43.875Z,8.10
2023-04-07T21:02:11.515Z,8.10
2023-04-07T21:04:38.701Z,8.00
2023-04-07T21:07:06.006Z,8.00
2023-04-07T21:09:32.978Z,8.00
2023-04-07T21:12:02.150Z,8.00
2023-04-07T21:14:29.206Z,8.00
2023-04-07T21:16:56.173Z,8.10
2023-04-07T21:19:23.201Z,8.10
2023-04-07T21:21:50.429Z,8.10
2023-04-07T21:24:17.403Z,8.10
2023-04-07T21:26:44.425Z,8.10
2023-04-07T21:29:11.529Z,8.20
2023-04-07T21:31:39.529Z,8.20
2023-04-07T21:34:06.749Z,8.20
2023-04-07T21:36:33.950Z,8.20
2023-04-07T21:39:00.989Z,8.20
2023-04-07T21:41:28.027Z,8.20
2023-04-07T21:43:54.982Z,8.20
2023-04-07T21:46:22.247Z,8.20
2023-04-07T21:48:49.786Z,8.10
2023-04-07T21:51:17.454Z,8.10
2023-04-07T21:53:44.678Z,8.10
2023-04-07T21:56:13.232Z,8.10
2023-04-07T21:58:41.970Z,8.10
2023-04-07T22:01:08.973Z,8.10
2023-04-07T22:03:36.176Z,8.10
2023-04-07T22:06:03.378Z,8.10
2023-04-07T22:08:30.485Z,8.10
2023-04-07T22:10:58.830Z,8.10
2023-04-07T22:13:25.878Z,8.10
2023-04-07T22:15:53.095Z,8.00
2023-04-07T22:18:22.054Z,8.10
2023-04-07T22:20:49.231Z,8.00
2023-04-07T22:23:16.230Z,8.00
2023-04-07T22:25:43.259Z,8.00
2023-04-07T22:28:10.274Z,8.00
2023-04-07T22:30:37.258Z,7.90
2023-04-07T22:33:05.290Z,7.90
2023-04-07T22:35:32.569Z,7.80
2023-04-07T22:37:59.614Z,7.70
2023-04-07T22:40:26.605Z,7.70
2023-04-07T22:42:53.600Z,7.70
2023-04-07T22:45:21.124Z,7.70
2023-04-07T22:47:48.244Z,7.70
2023-04-07T22:50:15.809Z,7.70
2023-04-07T22:52:42.841Z,7.70
2023-04-07T22:55:10.084Z,7.70
2023-04-07T22:57:37.118Z,7.70
2023-04-07T23:00:04.909Z,7.70
2023-04-07T23:02:32.699Z,7.70
2023-04-07T23:04:59.810Z,7.70
2023-04-07T23:07:27.219Z,7.60
2023-04-07T23:09:54.183Z,7.60
2023-04-07T23:12:21.393Z,7.60
2023-04-07T23:14:48.417Z,7.60
2023-04-07T23:17:16.339Z,7.60
2023-04-07T23:19:43.364Z,7.50
2023-04-07T23:22:10.424Z,7.50
2023-04-07T23:24:37.445Z,7.50
2023-04-07T23:27:04.555Z,7.50
2023-04-07T23:29:32.611Z,7.50
2023-04-07T23:31:59.748Z,7.50
2023-04-07T23:34:26.796Z,7.40
2023-04-07T23:36:53.767Z,7.40
2023-04-07T23:39:20.829Z,7.40
2023-04-07T23:41:48.359Z,7.40
2023-04-07T23:44:15.810Z,7.30
2023-04-07T23:46:42.825Z,7.40
2023-04-07T23:49:09.862Z,7.30
2023-04-07T23:51:36.864Z,7.20
2023-04-07T23:54:04.002Z,7.20
2023-04-07T23:56:32.083Z,7.20
2023-04-07T23:58:59.131Z,7.20
